createdAt,value
2023-05-19T00:00:52.993Z,101267.00
2023-05-19T00:05:57.636Z,101256.75
2023-05-19T00:11:00.505Z,101254.13
2023-05-19T00:16:03.308Z,101259.00
2023-05-19T00:21:06.224Z,101274.53
2023-05-19T00:26:08.745Z,101278.00
2023-05-19T00:31:11.213Z,101264.16
2023-05-19T00:36:14.411Z,101281.91
2023-05-19T00:41:16.953Z,101279.78
2023-05-19T00:46:20.149Z,101280.16
2023-05-19T00:51:27.455Z,101285.09
2023-05-19T00:56:30.141Z,101279.81
2023-05-19T01:01:32.740Z,101276.69
2023-05-19T01:06:35.413Z,101280.16
2023-05-19T01:11:37.938Z,101284.47
2023-05-19T01:16:47.715Z,101283.47
2023-05-19T01:22:28.169Z,101289.22
2023-05-19T01:27:34.056Z,101286.56
2023-05-19T01:32:38.655Z,101288.75
2023-05-19T01:37:42.306Z,101297.47
2023-05-19T01:42:47.623Z,101300.59
2023-05-19T01:47:56.664Z,101303.09
2023-05-19T01:52:59.880Z,101309.06
2023-05-19T01:58:36.950Z,101304.56
2023-05-19T02:03:56.980Z,101302.81
2023-05-19T02:09:17.863Z,101303.81
2023-05-19T02:14:38.649Z,101311.53
2023-05-19T02:19:41.836Z,101306.44
2023-05-19T02:24:46.778Z,101315.63
2023-05-19T02:29:49.564Z,101326.75
2023-05-19T02:34:53.615Z,101321.31
2023-05-19T02:39:56.108Z,101319.34
2023-05-19T02:44:58.477Z,101321.19
2023-05-19T02:50:00.942Z,101332.28
2023-05-19T02:55:03.724Z,101328.34
2023-05-19T03:00:07.136Z,101326.81
2023-05-19T03:05:10.595Z,101326.75
2023-05-19T03:10:13.146Z,101326.00
2023-05-19T03:15:16.917Z,101332.03
2023-05-19T03:20:20.372Z,101335.88
2023-05-19T03:25:23.395Z,101331.44
2023-05-19T03:30:26.227Z,101332.91
2023-05-19T03:35:41.284Z,101333.09
2023-05-19T03:40:45.378Z,101338.41
2023-05-19T03:45:48.698Z,101339.22
2023-05-19T03:51:09.711Z,101337.69
2023-05-19T03:56:14.052Z,101354.78
2023-05-19T04:01:16.544Z,101354.75
2023-05-19T04:06:19.434Z,101361.00
2023-05-19T04:11:22.503Z,101353.94
2023-05-19T04:16:25.264Z,101367.69
2023-05-19T04:21:27.884Z,101374.94
2023-05-19T04:26:31.398Z,101369.00
2023-05-19T04:31:35.559Z,101371.91
2023-05-19T04:36:41.943Z,101361.88
2023-05-19T04:41:45.493Z,101377.88
2023-05-19T04:46:50.346Z,101371.28
2023-05-19T04:51:55.530Z,101375.66
2023-05-19T04:57:01.621Z,101368.69
2023-05-19T05:02:06.531Z,101382.59
2023-05-19T05:07:11.134Z,101375.38
2023-05-19T05:12:15.420Z,101382.38
2023-05-19T05:17:18.404Z,101383.56
2023-05-19T05:22:21.356Z,101373.97
2023-05-19T05:27:24.233Z,101378.50
2023-05-19T05:32:27.060Z,101372.00
2023-05-19T05:37:31.229Z,101375.06
2023-05-19T05:42:33.984Z,101372.72
2023-05-19T05:47:40.147Z,101380.41
2023-05-19T05:52:46.752Z,101375.59
2023-05-19T05:57:50.824Z,101378.91
2023-05-19T06:02:53.603Z,101382.13
2023-05-19T06:07:56.441Z,101391.69
2023-05-19T06:13:01.983Z,101388.75
2023-05-19T06:18:04.816Z,101394.34
2023-05-19T06:23:07.375Z,101388.88
2023-05-19T06:28:09.957Z,101390.38
2023-05-19T06:33:13.663Z,101383.91
2023-05-19T06:38:16.766Z,101399.00
2023-05-19T06:43:19.593Z,101394.78
2023-05-19T06:48:30.827Z,101399.75
2023-05-19T06:53:35.146Z,101400.06
2023-05-19T06:58:42.687Z,101403.16
2023-05-19T07:03:47.410Z,101397.56
2023-05-19T07:08:51.424Z,101391.69
2023-05-19T07:13:54.798Z,101382.16
2023-05-19T07:19:02.780Z,101393.63
2023-05-19T07:24:05.582Z,101384.38
2023-05-19T07:29:08.308Z,101381.59
2023-05-19T07:34:10.903Z,101380.78
2023-05-19T07:39:13.685Z,101384.44
2023-05-19T07:44:16.747Z,101388.91
2023-05-19T07:49:19.509Z,101391.88
2023-05-19T07:54:22.084Z,101384.28
2023-05-19T07:59:24.718Z,101393.06
2023-05-19T08:04:28.124Z,101379.72
2023-05-19T08:09:31.333Z,101382.19
2023-05-19T08:14:35.195Z,101397.00
2023-05-19T08:19:37.780Z,101362.16
2023-05-19T08:24:42.873Z,101375.00
2023-05-19T08:29:45.472Z,101364.97
2023-05-19T08:34:48.107Z,101372.09
2023-05-19T08:39:50.884Z,101370.97
2023-05-19T08:44:53.477Z,101367.41
2023-05-19T08:50:11.926Z,101366.97
2023-05-19T08:55:42.229Z,101371.28
2023-05-19T09:00:44.877Z,101365.44
2023-05-19T09:05:48.700Z,101355.22
2023-05-19T09:10:51.407Z,101355.00
2023-05-19T09:15:56.501Z,101358.88
2023-05-19T09:21:01.000Z,101360.13
2023-05-19T09:26:07.750Z,101344.94
2023-05-19T09:31:11.789Z,101366.06
2023-05-19T09:36:14.515Z,101352.78
2023-05-19T09:41:17.452Z,101349.06
2023-05-19T09:46:28.734Z,101361.63
2023-05-19T09:51:32.276Z,101356.53
2023-05-19T09:56:35.425Z,101352.41
2023-05-19T10:01:41.456Z,101352.13
2023-05-19T10:06:44.994Z,101354.56
2023-05-19T10:11:47.948Z,101341.38
2023-05-19T10:17:00.753Z,101349.41
2023-05-19T10:22:03.722Z,101355.63
2023-05-19T10:27:12.248Z,101349.94
2023-05-19T10:32:19.816Z,101348.06
2023-05-19T10:37:34.188Z,101348.66
2023-05-19T10:42:59.224Z,101347.34
2023-05-19T10:48:02.032Z,101334.25
2023-05-19T10:53:04.672Z,101330.66
2023-05-19T10:58:06.997Z,101337.19
2023-05-19T11:03:17.973Z,101324.69
2023-05-19T11:08:33.108Z,101332.78
2023-05-19T11:13:36.746Z,101313.09
2023-05-19T11:18:39.602Z,101317.47
2023-05-19T11:23:42.198Z,101322.75
2023-05-19T11:28:45.894Z,101323.91
2023-05-19T11:33:49.064Z,101317.13
2023-05-19T11:38:52.242Z,101314.44
2023-05-19T11:43:54.768Z,101317.16
2023-05-19T11:48:58.214Z,101317.56
2023-05-19T11:54:02.008Z,101324.19
2023-05-19T11:59:04.539Z,101320.84
2023-05-19T12:04:10.741Z,101322.06
2023-05-19T12:09:13.272Z,101324.06
2023-05-19T12:14:15.937Z,101320.53
2023-05-19T12:19:18.437Z,101324.31
2023-05-19T12:24:22.109Z,101314.53
2023-05-19T12:29:29.458Z,101312.06
2023-05-19T12:34:32.436Z,101314.31
2023-05-19T12:39:34.991Z,101310.84
2023-05-19T12:44:58.926Z,101313.38
2023-05-19T12:50:05.600Z,101310.22
2023-05-19T12:55:11.181Z,101308.63
2023-05-19T13:00:22.095Z,101309.91
2023-05-19T13:05:25.341Z,101303.81
2023-05-19T13:10:32.162Z,101311.63
2023-05-19T13:15:38.067Z,101303.06
2023-05-19T13:20:42.928Z,101312.09
2023-05-19T13:25:45.910Z,101301.94
2023-05-19T13:30:49.947Z,101307.72
2023-05-19T13:35:52.632Z,101314.69
2023-05-19T13:40:55.122Z,101314.72
2023-05-19T13:45:57.900Z,101316.34
2023-05-19T13:51:00.504Z,101314.34
2023-05-19T13:56:03.147Z,101313.94
2023-05-19T14:01:05.851Z,101307.78
2023-05-19T14:06:09.335Z,101309.44
2023-05-19T14:11:19.977Z,101307.38
2023-05-19T14:16:23.340Z,101310.72
2023-05-19T14:21:26.061Z,101320.50
2023-05-19T14:26:29.385Z,101312.72
2023-05-19T14:31:33.461Z,101319.69
2023-05-19T14:36:36.129Z,101312.31
2023-05-19T14:41:38.639Z,101315.59
2023-05-19T14:46:41.167Z,101322.50
2023-05-19T14:51:43.586Z,101309.44
2023-05-19T14:56:46.061Z,101313.88
2023-05-19T15:01:48.760Z,101314.72
2023-05-19T15:07:05.964Z,101313.09
2023-05-19T15:12:12.162Z,101306.44
2023-05-19T15:17:14.648Z,101319.13
2023-05-19T15:22:17.536Z,101313.81
2023-05-19T15:27:21.106Z,101309.28
2023-05-19T15:32:23.664Z,101321.47
2023-05-19T15:37:26.144Z,101321.06
2023-05-19T15:42:28.664Z,101322.22
2023-05-19T15:47:32.567Z,101327.88
2023-05-19T15:52:35.133Z,101344.13
2023-05-19T15:57:37.639Z,101344.47
2023-05-19T16:02:41.127Z,101351.16
2023-05-19T16:07:43.567Z,101356.63
2023-05-19T16:12:46.089Z,101357.09
2023-05-19T16:17:48.617Z,101357.81
2023-05-19T16:22:51.160Z,101362.38
2023-05-19T16:27:53.749Z,101379.25
2023-05-19T16:32:56.407Z,101374.94
2023-05-19T16:37:59.066Z,101375.72
2023-05-19T16:43:01.704Z,101385.97
2023-05-19T16:48:04.524Z,101385.59
2023-05-19T16:53:07.185Z,101383.78
2023-05-19T16:58:11.892Z,101395.41
2023-05-19T17:03:14.559Z,101405.69
2023-05-19T17:08:17.246Z,101407.03
2023-05-19T17:13:19.773Z,101404.25
2023-05-19T17:18:22.435Z,101411.53
2023-05-19T17:23:25.003Z,101409.75
2023-05-19T17:28:27.762Z,101410.09
2023-05-19T17:33:30.651Z,101404.03
2023-05-19T17:38:33.557Z,101415.88
2023-05-19T17:43:40.496Z,101416.41
2023-05-19T17:48:43.062Z,101417.72
2023-05-19T17:53:45.938Z,101415.97
2023-05-19T17:58:49.864Z,101416.56
2023-05-19T18:03:52.759Z,101422.72
2023-05-19T18:08:59.406Z,101430.56
2023-05-19T18:14:03.416Z,101428.84
2023-05-19T18:19:05.967Z,101424.81
2023-05-19T18:24:08.642Z,101423.94
2023-05-19T18:29:14.981Z,101425.84
2023-05-19T18:34:17.525Z,101425.47
2023-05-19T18:39:20.031Z,101430.78
2023-05-19T18:44:22.672Z,101433.13
2023-05-19T18:49:25.334Z,101432.84
2023-05-19T18:54:27.820Z,101437.72
2023-05-19T18:59:30.390Z,101431.41
2023-05-19T19:04:33.279Z,101444.88
2023-05-19T19:09:35.828Z,101453.63
2023-05-19T19:14:38.976Z,101457.19
2023-05-19T19:19:41.840Z,101455.66
2023-05-19T19:24:44.503Z,101456.50
2023-05-19T19:29:47.326Z,101465.59
2023-05-19T19:34:49.922Z,101469.25
2023-05-19T19:39:52.468Z,101476.88
2023-05-19T19:44:56.114Z,101476.50
2023-05-19T19:49:59.491Z,101471.88
2023-05-19T19:55:02.797Z,101481.31
2023-05-19T20:00:09.920Z,101492.41
2023-05-19T20:05:13.283Z,101503.47
2023-05-19T20:10:16.275Z,101507.22
2023-05-19T20:15:18.954Z,101510.69
2023-05-19T20:20:22.006Z,101501.63
2023-05-19T20:25:24.612Z,101505.75
2023-05-19T20:30:27.309Z,101503.13
2023-05-19T20:35:29.991Z,101498.88
2023-05-19T20:40:33.124Z,101503.59
2023-05-19T20:45:36.756Z,101504.78
2023-05-19T20:50:40.016Z,101506.38
2023-05-19T20:55:45.888Z,101513.13
2023-05-19T21:00:53.742Z,101504.47
2023-05-19T21:05:56.735Z,101510.41
2023-05-19T21:10:59.663Z,101514.44
2023-05-19T21:16:03.625Z,101509.13
2023-05-19T21:21:06.127Z,101513.16
2023-05-19T21:26:08.670Z,101502.38
2023-05-19T21:31:11.328Z,101512.34
2023-05-19T21:36:14.118Z,101502.25
2023-05-19T21:41:16.706Z,101507.34
2023-05-19T21:46:19.625Z,101505.63
2023-05-19T21:51:22.157Z,101509.50
2023-05-19T21:56:24.873Z,101503.44
2023-05-19T22:01:28.014Z,101507.13
2023-05-19T22:06:31.821Z,101514.66
2023-05-19T22:11:34.254Z,101514.72
2023-05-19T22:16:36.941Z,101518.03
2023-05-19T22:21:39.462Z,101516.25
2023-05-19T22:26:44.824Z,101518.09
2023-05-19T22:31:47.702Z,101519.13
2023-05-19T22:36:50.115Z,101532.22
2023-05-19T22:41:53.137Z,101538.19
2023-05-19T22:46:55.721Z,101535.06
2023-05-19T22:51:58.172Z,101534.75
2023-05-19T22:57:00.724Z,101524.53
2023-05-19T23:02:03.390Z,101523.53
2023-05-19T23:07:06.093Z,101525.53
2023-05-19T23:12:08.694Z,101517.47
2023-05-19T23:17:11.227Z,101519.75
2023-05-19T23:22:13.904Z,101514.97
2023-05-19T23:27:16.408Z,101512.78
2023-05-19T23:32:18.914Z,101519.25
2023-05-19T23:37:21.432Z,101509.81
2023-05-19T23:42:23.932Z,101514.50
2023-05-19T23:47:26.990Z,101516.31
2023-05-19T23:52:29.568Z,101500.59
2023-05-19T23:57:32.088Z,101508.88
